sensor_id;sensor_type;location;lat;lon;timestamp;pressure;altitude;pressure_sealevel;temperature;humidity
75656;BME280;64252;51.094;13.714;2023-03-05T00:00:36;100423.00;;;2.34;79.57
75656;BME280;64252;51.094;13.714;2023-03-05T00:03:02;100429.38;;;2.35;79.33
75656;BME280;64252;51.094;13.714;2023-03-05T00:05:28;100417.44;;;2.34;79.57
75656;BME280;64252;51.094;13.714;2023-03-05T00:07:53;100418.06;;;2.31;79.51
75656;BME280;64252;51.094;13.714;2023-03-05T00:10:20;100426.94;;;2.33;79.13
75656;BME280;64252;51.094;13.714;2023-03-05T00:12:46;100425.28;;;2.32;78.69
75656;BME280;64252;51.094;13.714;2023-03-05T00:15:11;100415.63;;;2.30;79.01
75656;BME280;64252;51.094;13.714;2023-03-05T00:17:37;100422.69;;;2.27;79.13
75656;BME280;64252;51.094;13.714;2023-03-05T00:20:03;100426.25;;;2.36;78.56
75656;BME280;64252;51.094;13.714;2023-03-05T00:22:28;100416.06;;;2.40;78.84
75656;BME280;64252;51.094;13.714;2023-03-05T00:24:55;100419.84;;;2.36;78.72
75656;BME280;64252;51.094;13.714;2023-03-05T00:27:20;100416.28;;;2.35;78.56
75656;BME280;64252;51.094;13.714;2023-03-05T00:29:46;100417.44;;;2.34;79.03
75656;BME280;64252;51.094;13.714;2023-03-05T00:32:12;100406.94;;;2.31;78.53
75656;BME280;64252;51.094;13.714;2023-03-05T00:34:37;100404.50;;;2.30;78.82
75656;BME280;64252;51.094;13.714;2023-03-05T00:37:03;100404.81;;;2.28;78.83
75656;BME280;64252;51.094;13.714;2023-03-05T00:39:30;100408.28;;;2.25;78.95
75656;BME280;64252;51.094;13.714;2023-03-05T00:41:56;100405.00;;;2.23;78.70
75656;BME280;64252;51.094;13.714;2023-03-05T00:44:21;100399.94;;;2.25;78.95
75656;BME280;64252;51.094;13.714;2023-03-05T00:46:48;100401.06;;;2.24;78.56
75656;BME280;64252;51.094;13.714;2023-03-05T00:49:14;100390.38;;;2.26;78.27
75656;BME280;64252;51.094;13.714;2023-03-05T00:51:40;100388.28;;;2.23;78.06
75656;BME280;64252;51.094;13.714;2023-03-05T00:54:06;100392.91;;;2.19;78.31
75656;BME280;64252;51.094;13.714;2023-03-05T00:56:31;100386.50;;;2.18;77.97
75656;BME280;64252;51.094;13.714;2023-03-05T00:58:57;100389.59;;;2.17;77.69
75656;BME280;64252;51.094;13.714;2023-03-05T01:01:23;100384.72;;;2.14;77.98
75656;BME280;64252;51.094;13.714;2023-03-05T01:03:49;100373.06;;;2.12;77.62
75656;BME280;64252;51.094;13.714;2023-03-05T01:06:15;100371.47;;;2.11;77.13
75656;BME280;64252;51.094;13.714;2023-03-05T01:08:43;100372.47;;;2.06;77.40
75656;BME280;64252;51.094;13.714;2023-03-05T01:11:10;100374.91;;;2.08;77.03
75656;BME280;64252;51.094;13.714;2023-03-05T01:13:36;100373.28;;;2.07;77.13
75656;BME280;64252;51.094;13.714;2023-03-05T01:16:02;100361.66;;;2.05;76.95
75656;BME280;64252;51.094;13.714;2023-03-05T01:18:28;100360.50;;;2.06;77.22
75656;BME280;64252;51.094;13.714;2023-03-05T01:20:55;100358.72;;;2.01;77.00
75656;BME280;64252;51.094;13.714;2023-03-05T01:23:21;100355.59;;;2.03;77.24
75656;BME280;64252;51.094;13.714;2023-03-05T01:25:55;100367.41;;;2.00;77.13
75656;BME280;64252;51.094;13.714;2023-03-05T01:28:21;100359.03;;;2.00;77.36
75656;BME280;64252;51.094;13.714;2023-03-05T01:30:48;100358.53;;;1.98;77.23
75656;BME280;64252;51.094;13.714;2023-03-05T01:33:14;100357.25;;;1.95;76.66
75656;BME280;64252;51.094;13.714;2023-03-05T01:35:41;100357.56;;;1.94;76.92
75656;BME280;64252;51.094;13.714;2023-03-05T01:38:06;100344.47;;;1.94;75.98
75656;BME280;64252;51.094;13.714;2023-03-05T01:40:32;100346.44;;;1.94;75.93
75656;BME280;64252;51.094;13.714;2023-03-05T01:43:30;100340.41;;;1.92;nan
75656;BME280;64252;51.094;13.714;2023-03-05T01:54:38;100344.84;;;1.84;74.30
75656;BME280;64252;51.094;13.714;2023-03-05T01:57:09;100337.97;;;1.82;73.60
75656;BME280;64252;51.094;13.714;2023-03-05T01:59:39;100335.50;;;1.80;73.11
75656;BME280;64252;51.094;13.714;2023-03-05T02:02:07;100340.25;;;1.80;72.93
75656;BME280;64252;51.094;13.714;2023-03-05T02:04:49;100339.13;;;1.81;72.36
75656;BME280;64252;51.094;13.714;2023-03-05T02:07:16;100337.16;;;1.81;72.04
75656;BME280;64252;51.094;13.714;2023-03-05T02:09:42;100336.19;;;1.77;72.11
75656;BME280;64252;51.094;13.714;2023-03-05T02:12:09;100333.72;;;1.75;71.65
75656;BME280;64252;51.094;13.714;2023-03-05T02:14:36;100327.69;;;1.73;73.10
75656;BME280;64252;51.094;13.714;2023-03-05T02:17:04;100331.63;;;1.72;72.45
75656;BME280;64252;51.094;13.714;2023-03-05T02:19:52;100325.56;;;1.70;72.62
75656;BME280;64252;51.094;13.714;2023-03-05T02:22:19;100324.59;;;1.66;73.10
75656;BME280;64252;51.094;13.714;2023-03-05T02:24:45;100322.13;;;1.65;73.07
75656;BME280;64252;51.094;13.714;2023-03-05T02:27:12;100321.81;;;1.66;73.06
75656;BME280;64252;51.094;13.714;2023-03-05T02:29:42;100309.22;;;1.69;73.12
75656;BME280;64252;51.094;13.714;2023-03-05T02:32:08;100308.56;;;1.63;73.45
75656;BME280;64252;51.094;13.714;2023-03-05T02:34:34;100305.78;;;1.63;73.70
75656;BME280;64252;51.094;13.714;2023-03-05T02:37:00;100305.94;;;1.58;74.19
75656;BME280;64252;51.094;13.714;2023-03-05T02:39:32;100306.63;;;1.55;74.02
75656;BME280;64252;51.094;13.714;2023-03-05T02:41:58;100298.75;;;1.57;73.67
75656;BME280;64252;51.094;13.714;2023-03-05T02:44:26;100300.38;;;1.58;73.15
75656;BME280;64252;51.094;13.714;2023-03-05T02:46:52;100301.06;;;1.55;73.47
75656;BME280;64252;51.094;13.714;2023-03-05T02:49:17;100297.78;;;1.53;73.52
75656;BME280;64252;51.094;13.714;2023-03-05T02:51:43;100296.28;;;1.56;73.22
75656;BME280;64252;51.094;13.714;2023-03-05T02:54:09;100296.97;;;1.53;72.73
75656;BME280;64252;51.094;13.714;2023-03-05T02:56:34;100294.50;;;1.51;73.20
75656;BME280;64252;51.094;13.714;2023-03-05T02:59:02;100303.19;;;1.50;73.12
75656;BME280;64252;51.094;13.714;2023-03-05T03:01:28;100291.91;;;1.55;72.82
75656;BME280;64252;51.094;13.714;2023-03-05T03:03:55;100298.91;;;1.52;73.00
75656;BME280;64252;51.094;13.714;2023-03-05T03:06:21;100292.88;;;1.50;73.29
75656;BME280;64252;51.094;13.714;2023-03-05T03:08:46;100293.53;;;1.47;72.96
75656;BME280;64252;51.094;13.714;2023-03-05T03:11:12;100293.53;;;1.47;73.00
75656;BME280;64252;51.094;13.714;2023-03-05T03:13:38;100296.31;;;1.47;73.00
75656;BME280;64252;51.094;13.714;2023-03-05T03:16:10;100291.88;;;1.46;72.75
75656;BME280;64252;51.094;13.714;2023-03-05T03:18:37;100292.56;;;1.43;72.72
75656;BME280;64252;51.094;13.714;2023-03-05T03:21:03;100292.56;;;1.43;72.44
75656;BME280;64252;51.094;13.714;2023-03-05T03:23:30;100287.00;;;1.43;72.14
75656;BME280;64252;51.094;13.714;2023-03-05T03:25:57;100289.47;;;1.45;71.82
75656;BME280;64252;51.094;13.714;2023-03-05T03:28:23;100285.34;;;1.42;72.35
75656;BME280;64252;51.094;13.714;2023-03-05T03:30:49;100287.00;;;1.43;71.62
75656;BME280;64252;51.094;13.714;2023-03-05T03:33:16;100291.59;;;1.39;71.92
75656;BME280;64252;51.094;13.714;2023-03-05T03:35:44;100280.78;;;1.38;72.35
75656;BME280;64252;51.094;13.714;2023-03-05T03:38:10;100285.06;;;1.35;72.65
75656;BME280;64252;51.094;13.714;2023-03-05T03:40:38;100279.50;;;1.35;72.48
75656;BME280;64252;51.094;13.714;2023-03-05T03:43:04;100285.06;;;1.35;71.74
75656;BME280;64252;51.094;13.714;2023-03-05T03:45:30;100266.72;;;1.34;72.10
75656;BME280;64252;51.094;13.714;2023-03-05T03:47:56;100274.94;;;1.30;72.31
75656;BME280;64252;51.094;13.714;2023-03-05T03:50:22;100270.66;;;1.33;71.93
75656;BME280;64252;51.094;13.714;2023-03-05T03:52:49;100265.75;;;1.30;72.58
75656;BME280;64252;51.094;13.714;2023-03-05T03:55:15;100276.38;;;1.28;72.73
75656;BME280;64252;51.094;13.714;2023-03-05T03:57:40;100268.03;;;1.28;72.23
75656;BME280;64252;51.094;13.714;2023-03-05T04:00:09;100268.03;;;1.28;72.38
75656;BME280;64252;51.094;13.714;2023-03-05T04:02:38;100268.72;;;1.25;72.91
75656;BME280;64252;51.094;13.714;2023-03-05T04:05:04;100263.16;;;1.25;72.47
75656;BME280;64252;51.094;13.714;2023-03-05T04:07:30;100266.59;;;1.22;72.71
75656;BME280;64252;51.094;13.714;2023-03-05T04:09:55;100259.88;;;1.23;72.58
75656;BME280;64252;51.094;13.714;2023-03-05T04:12:21;100261.03;;;1.22;72.78
75656;BME280;64252;51.094;13.714;2023-03-05T04:14:47;100251.06;;;1.21;72.92
75656;BME280;64252;51.094;13.714;2023-03-05T04:17:14;100254.16;;;1.19;73.32
75656;BME280;64252;51.094;13.714;2023-03-05T04:19:40;100255.66;;;1.17;72.87
75656;BME280;64252;51.094;13.714;2023-03-05T04:22:09;100254.81;;;1.16;73.54
75656;BME280;64252;51.094;13.714;2023-03-05T04:24:35;100255.47;;;1.13;73.31
75656;BME280;64252;51.094;13.714;2023-03-05T04:27:00;100243.72;;;1.16;73.32
75656;BME280;64252;51.094;13.714;2023-03-05T04:29:26;100252.38;;;1.15;72.87
75656;BME280;64252;51.094;13.714;2023-03-05T04:31:51;100249.25;;;1.16;73.81
75656;BME280;64252;51.094;13.714;2023-03-05T04:34:17;100241.25;;;1.15;73.51
75656;BME280;64252;51.094;13.714;2023-03-05T04:36:42;100243.06;;;1.11;73.93
75656;BME280;64252;51.094;13.714;2023-03-05T04:39:08;100236.00;;;1.13;74.74
75656;BME280;64252;51.094;13.714;2023-03-05T04:41:34;100241.25;;;1.15;73.77
75656;BME280;64252;51.094;13.714;2023-03-05T04:43:59;100229.97;;;1.11;74.51
75656;BME280;64252;51.094;13.714;2023-03-05T04:46:25;100237.81;;;1.09;74.70
75656;BME280;64252;51.094;13.714;2023-03-05T04:48:50;100230.78;;;1.12;75.22
75656;BME280;64252;51.094;13.714;2023-03-05T04:51:16;100231.75;;;1.16;75.21
75656;BME280;64252;51.094;13.714;2023-03-05T04:53:41;100230.94;;;1.15;76.18
75656;BME280;64252;51.094;13.714;2023-03-05T04:56:07;100241.38;;;1.18;75.89
75656;BME280;64252;51.094;13.714;2023-03-05T04:58:32;100223.88;;;1.18;76.92
75656;BME280;64252;51.094;13.714;2023-03-05T05:01:04;100231.63;;;1.12;77.97
75656;BME280;64252;51.094;13.714;2023-03-05T05:03:36;100239.94;;;1.12;78.45
75656;BME280;64252;51.094;13.714;2023-03-05T05:06:02;100231.44;;;1.09;78.82
75656;BME280;64252;51.094;13.714;2023-03-05T05:08:27;100230.16;;;1.06;79.37
75656;BME280;64252;51.094;13.714;2023-03-05T05:11:00;100228.66;;;1.00;80.46
75656;BME280;64252;51.094;13.714;2023-03-05T05:13:27;100232.97;;;0.89;82.14
75656;BME280;64252;51.094;13.714;2023-03-05T05:15:55;100229.53;;;0.83;82.30
75656;BME280;64252;51.094;13.714;2023-03-05T05:18:24;100233.09;;;0.75;82.20
75656;BME280;64252;51.094;13.714;2023-03-05T05:20:49;100232.13;;;0.63;82.92
75656;BME280;64252;51.094;13.714;2023-03-05T05:23:16;100233.63;;;0.60;82.58
75656;BME280;64252;51.094;13.714;2023-03-05T05:34:15;100215.63;;;0.66;82.97
75656;BME280;64252;51.094;13.714;2023-03-05T05:40:27;100216.44;;;0.75;81.64
75656;BME280;64252;51.094;13.714;2023-03-05T05:54:12;100220.03;;;0.84;80.46
75656;BME280;64252;51.094;13.714;2023-03-05T05:57:09;100211.34;;;0.86;81.07
75656;BME280;64252;51.094;13.714;2023-03-05T06:15:05;100219.00;;;1.15;79.07
75656;BME280;64252;51.094;13.714;2023-03-05T06:21:55;100206.22;;;1.31;77.95
75656;BME280;64252;51.094;13.714;2023-03-05T06:58:31;100197.25;;;1.93;75.28
75656;BME280;64252;51.094;13.714;2023-03-05T07:00:57;100209.25;;;1.85;76.72
75656;BME280;64252;51.094;13.714;2023-03-05T07:03:22;100202.59;;;1.77;77.93
75656;BME280;64252;51.094;13.714;2023-03-05T07:05:49;100200.25;;;1.79;77.57
75656;BME280;64252;51.094;13.714;2023-03-05T07:08:22;100214.81;;;1.85;77.04
75656;BME280;64252;51.094;13.714;2023-03-05T07:10:50;100205.53;;;1.72;77.22
75656;BME280;64252;51.094;13.714;2023-03-05T07:13:17;100207.22;;;1.64;77.77
75656;BME280;64252;51.094;13.714;2023-03-05T07:15:43;100210.78;;;1.73;77.70
75656;BME280;64252;51.094;13.714;2023-03-05T07:18:16;100202.81;;;1.63;78.43
75656;BME280;64252;51.094;13.714;2023-03-05T07:20:41;100210.28;;;1.71;78.18
75656;BME280;64252;51.094;13.714;2023-03-05T07:23:07;100209.63;;;1.74;78.48
75656;BME280;64252;51.094;13.714;2023-03-05T07:25:37;100211.31;;;1.67;79.36
75656;BME280;64252;51.094;13.714;2023-03-05T07:28:08;100213.59;;;1.65;79.25
75656;BME280;64252;51.094;13.714;2023-03-05T07:30:35;100202.31;;;1.61;79.88
75656;BME280;64252;51.094;13.714;2023-03-05T07:33:19;100206.75;;;1.62;79.82
75656;BME280;64252;51.094;13.714;2023-03-05T07:35:46;100205.41;;;1.68;80.42
75656;BME280;64252;51.094;13.714;2023-03-05T07:38:13;100198.66;;;1.78;80.07
75656;BME280;64252;51.094;13.714;2023-03-05T07:40:39;100198.69;;;1.99;79.60
75656;BME280;64252;51.094;13.714;2023-03-05T07:43:04;100196.28;;;2.18;78.66
75656;BME280;64252;51.094;13.714;2023-03-05T07:45:33;100196.31;;;2.39;78.04
75656;BME280;64252;51.094;13.714;2023-03-05T07:47:58;100196.16;;;2.35;78.01
75656;BME280;64252;51.094;13.714;2023-03-05T07:50:24;100189.06;;;2.17;78.23
75656;BME280;64252;51.094;13.714;2023-03-05T07:52:50;100194.25;;;2.27;78.84
75656;BME280;64252;51.094;13.714;2023-03-05T07:55:15;100183.09;;;2.27;78.13
75656;BME280;64252;51.094;13.714;2023-03-05T07:57:41;100192.06;;;2.33;78.21
75656;BME280;64252;51.094;13.714;2023-03-05T08:00:11;100183.38;;;2.34;78.36
75656;BME280;64252;51.094;13.714;2023-03-05T08:02:37;100187.44;;;2.37;77.54
75656;BME280;64252;51.094;13.714;2023-03-05T08:05:05;100186.31;;;2.58;76.97
75656;BME280;64252;51.094;13.714;2023-03-05T08:07:30;100184.75;;;2.28;78.29
75656;BME280;64252;51.094;13.714;2023-03-05T08:09:56;100183.09;;;2.27;79.32
75656;BME280;64252;51.094;13.714;2023-03-05T08:12:25;100185.69;;;2.32;79.92
75656;BME280;64252;51.094;13.714;2023-03-05T08:14:50;100190.28;;;2.07;81.19
75656;BME280;64252;51.094;13.714;2023-03-05T08:17:19;100175.75;;;2.02;82.36
75656;BME280;64252;51.094;13.714;2023-03-05T08:19:45;100176.03;;;2.09;82.91
75656;BME280;64252;51.094;13.714;2023-03-05T08:22:12;100182.34;;;2.18;83.24
75656;BME280;64252;51.094;13.714;2023-03-05T08:24:41;100176.38;;;2.28;82.96
75656;BME280;64252;51.094;13.714;2023-03-05T08:27:07;100172.38;;;2.58;82.50
75656;BME280;64252;51.094;13.714;2023-03-05T08:29:33;100168.16;;;3.06;80.37
75656;BME280;64252;51.094;13.714;2023-03-05T08:32:16;100162.97;;;3.29;80.03
75656;BME280;64252;51.094;13.714;2023-03-05T08:34:42;100166.09;;;3.27;79.03
75656;BME280;64252;51.094;13.714;2023-03-05T08:37:09;100165.78;;;3.77;77.18
75656;BME280;64252;51.094;13.714;2023-03-05T08:39:35;100170.56;;;3.89;76.10
75656;BME280;64252;51.094;13.714;2023-03-05T08:42:01;100156.13;;;3.99;75.92
75656;BME280;64252;51.094;13.714;2023-03-05T08:44:30;100159.84;;;3.79;76.50
75656;BME280;64252;51.094;13.714;2023-03-05T08:46:57;100151.94;;;3.69;77.13
75656;BME280;64252;51.094;13.714;2023-03-05T08:49:24;100153.09;;;3.68;76.48
75656;BME280;64252;51.094;13.714;2023-03-05T08:51:50;100152.88;;;3.73;76.11
75656;BME280;64252;51.094;13.714;2023-03-05T08:54:15;100152.53;;;3.62;76.81
75656;BME280;64252;51.094;13.714;2023-03-05T08:56:41;100152.06;;;3.48;76.49
75656;BME280;64252;51.094;13.714;2023-03-05T08:59:06;100153.56;;;3.33;77.23
75656;BME280;64252;51.094;13.714;2023-03-05T09:01:34;100153.28;;;3.14;78.58
75656;BME280;64252;51.094;13.714;2023-03-05T09:04:01;100149.47;;;2.86;80.08
75656;BME280;64252;51.094;13.714;2023-03-05T09:06:27;100149.31;;;2.70;81.12
75656;BME280;64252;51.094;13.714;2023-03-05T09:08:54;100149.94;;;2.55;82.95
75656;BME280;64252;51.094;13.714;2023-03-05T09:11:20;100139.59;;;2.55;83.08
75656;BME280;64252;51.094;13.714;2023-03-05T09:13:49;100144.75;;;2.65;83.24
75656;BME280;64252;51.094;13.714;2023-03-05T09:16:17;100151.22;;;2.57;83.81
75656;BME280;64252;51.094;13.714;2023-03-05T09:18:47;100146.69;;;2.32;84.53
75656;BME280;64252;51.094;13.714;2023-03-05T09:21:16;100139.13;;;2.12;85.91
75656;BME280;64252;51.094;13.714;2023-03-05T09:29:29;100138.88;;;2.05;88.45
75656;BME280;64252;51.094;13.714;2023-03-05T10:49:34;100037.47;;;5.43;65.39
75656;BME280;64252;51.094;13.714;2023-03-05T10:52:19;100028.66;;;5.41;66.49
75656;BME280;64252;51.094;13.714;2023-03-05T10:54:46;100024.03;;;5.48;65.00
75656;BME280;64252;51.094;13.714;2023-03-05T10:57:24;100027.75;;;5.05;66.00
75656;BME280;64252;51.094;13.714;2023-03-05T11:02:57;100024.22;;;4.61;68.28
75656;BME280;64252;51.094;13.714;2023-03-05T11:05:46;100025.75;;;4.90;67.37
75656;BME280;64252;51.094;13.714;2023-03-05T11:08:33;100023.25;;;5.16;69.11
75656;BME280;64252;51.094;13.714;2023-03-05T11:13:49;100029.84;;;5.08;68.00
75656;BME280;64252;51.094;13.714;2023-03-05T11:19:13;100028.66;;;5.09;68.67
75656;BME280;64252;51.094;13.714;2023-03-05T11:21:41;100024.13;;;5.05;68.24
75656;BME280;64252;51.094;13.714;2023-03-05T11:24:17;100023.31;;;5.20;66.66
75656;BME280;64252;51.094;13.714;2023-03-05T11:26:53;100011.09;;;5.44;67.32
75656;BME280;64252;51.094;13.714;2023-03-05T11:29:29;100000.97;;;5.55;66.46
75656;BME280;64252;51.094;13.714;2023-03-05T11:32:15;100005.69;;;5.51;66.04
75656;BME280;64252;51.094;13.714;2023-03-05T11:34:44;100006.53;;;5.04;68.07
75656;BME280;64252;51.094;13.714;2023-03-05T11:37:22;100000.53;;;5.53;67.26
75656;BME280;64252;51.094;13.714;2023-03-05T11:40:18;100003.16;;;5.81;65.93
75656;BME280;64252;51.094;13.714;2023-03-05T11:45:30;99988.38;;;5.29;67.81
75656;BME280;64252;51.094;13.714;2023-03-05T11:48:19;99993.91;;;5.61;68.11
75656;BME280;64252;51.094;13.714;2023-03-05T11:51:16;99984.97;;;5.90;66.23
75656;BME280;64252;51.094;13.714;2023-03-05T11:53:45;99988.38;;;5.99;67.89
75656;BME280;64252;51.094;13.714;2023-03-05T11:56:40;99978.75;;;5.81;67.70
75656;BME280;64252;51.094;13.714;2023-03-05T11:59:19;99986.53;;;5.53;67.12
75656;BME280;64252;51.094;13.714;2023-03-05T12:01:49;99982.03;;;5.32;68.82
75656;BME280;64252;51.094;13.714;2023-03-05T12:04:17;99970.25;;;5.08;69.12
75656;BME280;64252;51.094;13.714;2023-03-05T12:06:59;99980.63;;;4.76;70.87
75656;BME280;64252;51.094;13.714;2023-03-05T12:09:44;99962.53;;;4.70;71.97
75656;BME280;64252;51.094;13.714;2023-03-05T12:15:18;99954.81;;;4.35;73.96
75656;BME280;64252;51.094;13.714;2023-03-05T12:55:02;99917.53;;;4.00;73.71
75656;BME280;64252;51.094;13.714;2023-03-05T13:13:56;99892.41;;;4.63;71.54
75656;BME280;64252;51.094;13.714;2023-03-05T13:24:36;99880.88;;;4.49;72.63
75656;BME280;64252;51.094;13.714;2023-03-05T13:45:30;99869.09;;;3.96;74.59
75656;BME280;64252;51.094;13.714;2023-03-05T13:48:04;99863.25;;;3.85;75.72
75656;BME280;64252;51.094;13.714;2023-03-05T13:50:37;99857.63;;;3.70;75.43
75656;BME280;64252;51.094;13.714;2023-03-05T13:53:23;99848.84;;;3.56;76.55
75656;BME280;64252;51.094;13.714;2023-03-05T13:55:51;99850.47;;;3.57;77.03
75656;BME280;64252;51.094;13.714;2023-03-05T14:03:53;99834.22;;;3.46;77.63
75656;BME280;64252;51.094;13.714;2023-03-05T14:06:24;99831.88;;;3.48;77.88
75656;BME280;64252;51.094;13.714;2023-03-05T14:08:56;99848.91;;;3.43;77.86
75656;BME280;64252;51.094;13.714;2023-03-05T14:11:23;99857.03;;;3.36;78.37
75656;BME280;64252;51.094;13.714;2023-03-05T14:13:59;99857.38;;;3.35;78.29
75656;BME280;64252;51.094;13.714;2023-03-05T14:16:27;99860.47;;;3.18;79.48
75656;BME280;64252;51.094;13.714;2023-03-05T14:19:00;99859.50;;;2.86;81.28
75656;BME280;64252;51.094;13.714;2023-03-05T14:21:53;99856.94;;;2.81;82.65
75656;BME280;64252;51.094;13.714;2023-03-05T14:24:22;99853.34;;;2.80;83.41
75656;BME280;64252;51.094;13.714;2023-03-05T14:26:54;99849.59;;;2.88;82.97
75656;BME280;64252;51.094;13.714;2023-03-05T14:29:23;99850.09;;;2.78;83.58
75656;BME280;64252;51.094;13.714;2023-03-05T14:31:59;99846.72;;;2.85;83.62
75656;BME280;64252;51.094;13.714;2023-03-05T14:34:39;99850.31;;;2.73;81.53
75656;BME280;64252;51.094;13.714;2023-03-05T14:37:19;99846.03;;;2.76;81.53
75656;BME280;64252;51.094;13.714;2023-03-05T14:42:35;99849.88;;;2.71;81.17
75656;BME280;64252;51.094;13.714;2023-03-05T14:45:17;99847.66;;;2.64;82.05
75656;BME280;64252;51.094;13.714;2023-03-05T14:47:44;99854.66;;;2.58;82.64
75656;BME280;64252;51.094;13.714;2023-03-05T14:50:49;99856.16;;;2.56;82.96
75656;BME280;64252;51.094;13.714;2023-03-05T14:53:26;99861.13;;;2.50;83.01
75656;BME280;64252;51.094;13.714;2023-03-05T14:55:54;99873.09;;;2.39;84.73
75656;BME280;64252;51.094;13.714;2023-03-05T14:58:27;99851.16;;;2.25;86.77
75656;BME280;64252;51.094;13.714;2023-03-05T15:01:02;99847.91;;;2.11;87.79
75656;BME280;64252;51.094;13.714;2023-03-05T15:03:29;99847.41;;;2.09;88.25
75656;BME280;64252;51.094;13.714;2023-03-05T15:05:58;99839.06;;;2.09;88.48
75656;BME280;64252;51.094;13.714;2023-03-05T15:08:26;99839.06;;;1.97;89.31
75656;BME280;64252;51.094;13.714;2023-03-05T15:10:52;99849.50;;;2.00;89.41
75656;BME280;64252;51.094;13.714;2023-03-05T15:13:18;99835.78;;;1.95;89.85
75656;BME280;64252;51.094;13.714;2023-03-05T15:15:47;99841.13;;;2.00;90.54
75656;BME280;64252;51.094;13.714;2023-03-05T15:18:17;99837.09;;;1.97;90.38
75656;BME280;64252;51.094;13.714;2023-03-05T15:20:48;99826.78;;;2.10;89.81
75656;BME280;64252;51.094;13.714;2023-03-05T15:23:18;99822.34;;;2.09;89.88
75656;BME280;64252;51.094;13.714;2023-03-05T15:25:49;99830.38;;;2.10;90.39
75656;BME280;64252;51.094;13.714;2023-03-05T15:28:15;99827.00;;;2.17;90.17
75656;BME280;64252;51.094;13.714;2023-03-05T15:30:44;99814.25;;;2.16;90.13
75656;BME280;64252;51.094;13.714;2023-03-05T15:33:13;99820.38;;;2.21;89.41
75656;BME280;64252;51.094;13.714;2023-03-05T15:35:40;99819.81;;;2.28;89.64
75656;BME280;64252;51.094;13.714;2023-03-05T15:38:07;99828.88;;;2.25;90.03
75656;BME280;64252;51.094;13.714;2023-03-05T15:40:36;99820.84;;;2.36;90.04
75656;BME280;64252;51.094;13.714;2023-03-05T15:43:01;99813.44;;;2.40;89.38
75656;BME280;64252;51.094;13.714;2023-03-05T15:45:28;99814.94;;;2.37;89.42
75656;BME280;64252;51.094;13.714;2023-03-05T15:47:56;99827.84;;;2.30;89.42
75656;BME280;64252;51.094;13.714;2023-03-05T15:50:23;99809.16;;;2.30;89.55
75656;BME280;64252;51.094;13.714;2023-03-05T15:52:51;99812.28;;;2.29;89.50
75656;BME280;64252;51.094;13.714;2023-03-05T15:55:17;99811.47;;;2.28;90.06
75656;BME280;64252;51.094;13.714;2023-03-05T15:57:47;99808.19;;;2.26;89.28
75656;BME280;64252;51.094;13.714;2023-03-05T16:00:17;99801.25;;;2.32;89.93
75656;BME280;64252;51.094;13.714;2023-03-05T16:02:43;99803.09;;;2.28;89.59
75656;BME280;64252;51.094;13.714;2023-03-05T16:05:09;99799.38;;;2.24;89.81
75656;BME280;64252;51.094;13.714;2023-03-05T16:07:37;99807.75;;;2.24;89.52
75656;BME280;64252;51.094;13.714;2023-03-05T16:10:05;99806.59;;;2.25;90.23
75656;BME280;64252;51.094;13.714;2023-03-05T16:12:35;99800.78;;;2.18;89.66
75656;BME280;64252;51.094;13.714;2023-03-05T16:15:10;99797.41;;;2.12;89.50
75656;BME280;64252;51.094;13.714;2023-03-05T16:17:38;99801.72;;;2.10;89.60
75656;BME280;64252;51.094;13.714;2023-03-05T16:20:05;99791.00;;;2.12;90.34
75656;BME280;64252;51.094;13.714;2023-03-05T16:22:31;99792.66;;;2.13;90.68
75656;BME280;64252;51.094;13.714;2023-03-05T16:24:58;99791.00;;;2.12;90.77
75656;BME280;64252;51.094;13.714;2023-03-05T16:27:26;99786.84;;;2.06;90.17
75656;BME280;64252;51.094;13.714;2023-03-05T16:29:51;99784.31;;;2.01;90.59
75656;BME280;64252;51.094;13.714;2023-03-05T16:32:17;99777.81;;;1.97;90.97
75656;BME280;64252;51.094;13.714;2023-03-05T16:34:43;99789.16;;;1.92;90.95
75656;BME280;64252;51.094;13.714;2023-03-05T16:37:09;99783.94;;;1.90;90.84
75656;BME280;64252;51.094;13.714;2023-03-05T16:39:35;99770.81;;;1.91;90.81
75656;BME280;64252;51.094;13.714;2023-03-05T16:42:00;99779.88;;;1.88;91.54
75656;BME280;64252;51.094;13.714;2023-03-05T16:44:26;99778.94;;;1.84;91.30
75656;BME280;64252;51.094;13.714;2023-03-05T16:46:52;99781.25;;;1.82;91.77
75656;BME280;64252;51.094;13.714;2023-03-05T16:49:25;99781.13;;;1.78;92.29
75656;BME280;64252;51.094;13.714;2023-03-05T16:52:09;99781.25;;;1.82;90.54
75656;BME280;64252;51.094;13.714;2023-03-05T16:54:57;99784.03;;;1.82;89.62
75656;BME280;64252;51.094;13.714;2023-03-05T16:58:08;99782.75;;;1.79;90.11
75656;BME280;64252;51.094;13.714;2023-03-05T17:05:30;99787.53;;;1.79;90.02
75656;BME280;64252;51.094;13.714;2023-03-05T17:19:50;99788.78;;;1.93;86.60
75656;BME280;64252;51.094;13.714;2023-03-05T17:22:15;99794.28;;;2.02;85.66
75656;BME280;64252;51.094;13.714;2023-03-05T17:24:41;99785.94;;;2.02;85.29
75656;BME280;64252;51.094;13.714;2023-03-05T17:27:08;99775.72;;;2.06;84.28
75656;BME280;64252;51.094;13.714;2023-03-05T17:29:36;99790.22;;;2.11;83.58
75656;BME280;64252;51.094;13.714;2023-03-05T17:32:03;99782.22;;;2.10;83.23
75656;BME280;64252;51.094;13.714;2023-03-05T17:34:30;99786.84;;;2.06;83.03
75656;BME280;64252;51.094;13.714;2023-03-05T17:36:56;99793.81;;;2.00;80.89
75656;BME280;64252;51.094;13.714;2023-03-05T17:39:22;99783.38;;;1.97;81.36
75656;BME280;64252;51.094;13.714;2023-03-05T17:41:48;99792.41;;;1.94;81.05
75656;BME280;64252;51.094;13.714;2023-03-05T17:44:13;99793.31;;;1.86;81.68
75656;BME280;64252;51.094;13.714;2023-03-05T17:46:40;99783.34;;;1.85;81.04
75656;BME280;64252;51.094;13.714;2023-03-05T17:49:06;99795.66;;;1.84;81.02
75656;BME280;64252;51.094;13.714;2023-03-05T17:51:32;99794.25;;;1.77;82.07